createdAt,value
2018-05-12T00:02:08.953Z,85.30
2018-05-12T00:04:36.513Z,85.40
2018-05-12T00:07:04.243Z,85.50
2018-05-12T00:09:31.900Z,85.30
2018-05-12T00:11:59.462Z,85.20
2018-05-12T00:14:27.009Z,85.20
2018-05-12T00:16:54.518Z,85.20
2018-05-12T00:19:22.846Z,85.20
2018-05-12T00:21:50.350Z,85.30
2018-05-12T00:24:17.893Z,85.30
2018-05-12T00:26:45.429Z,85.40
2018-05-12T00:29:13.046Z,85.50
2018-05-12T00:31:40.609Z,85.40
2018-05-12T00:34:08.253Z,85.30
2018-05-12T00:36:35.772Z,85.30
2018-05-12T00:39:03.337Z,85.30
2018-05-12T00:41:30.859Z,85.30
2018-05-12T00:43:58.405Z,85.20
2018-05-12T00:46:25.905Z,85.30
2018-05-12T00:48:53.454Z,85.10
2018-05-12T00:51:21.187Z,84.90
2018-05-12T00:53:48.950Z,85.10
2018-05-12T00:56:16.673Z,85.20
2018-05-12T00:58:44.225Z,84.90
2018-05-12T01:01:11.737Z,85.20
2018-05-12T01:03:39.284Z,85.10
2018-05-12T01:06:06.822Z,85.10
2018-05-12T01:08:34.348Z,85.20
2018-05-12T01:11:02.342Z,85.40
2018-05-12T01:13:29.907Z,85.40
2018-05-12T01:15:57.401Z,85.60
2018-05-12T01:18:24.934Z,85.40
2018-05-12T01:20:52.557Z,85.40
2018-05-12T01:23:20.070Z,85.40
2018-05-12T01:25:47.619Z,85.60
2018-05-12T01:28:15.137Z,85.70
2018-05-12T01:30:42.787Z,86.20
2018-05-12T01:33:10.289Z,86.30
2018-05-12T01:35:38.010Z,86.70
2018-05-12T01:38:05.509Z,86.70
2018-05-12T01:40:33.062Z,86.70
2018-05-12T01:43:00.692Z,86.70
2018-05-12T01:45:28.249Z,86.60
2018-05-12T01:47:55.778Z,86.50
2018-05-12T01:50:23.333Z,86.30
2018-05-12T01:52:50.842Z,86.20
2018-05-12T01:55:18.565Z,86.10
2018-05-12T01:57:46.075Z,86.10
2018-05-12T02:00:13.614Z,86.10
2018-05-12T02:02:41.131Z,86.20
2018-05-12T02:05:08.665Z,86.10
2018-05-12T02:07:36.180Z,86.50
2018-05-12T02:10:03.718Z,86.50
2018-05-12T02:12:31.236Z,86.30
2018-05-12T02:14:59.006Z,86.50
2018-05-12T02:17:26.521Z,86.30
2018-05-12T02:19:54.459Z,86.60
2018-05-12T02:22:21.982Z,86.60
2018-05-12T02:24:49.657Z,86.60
2018-05-12T02:27:17.318Z,86.30
2018-05-12T02:29:44.973Z,86.50
2018-05-12T02:32:12.497Z,86.30
2018-05-12T02:34:40.053Z,86.30
2018-05-12T02:37:07.741Z,86.30
2018-05-12T02:39:35.295Z,86.50
2018-05-12T02:42:02.814Z,86.60
2018-05-12T02:44:30.365Z,86.60
2018-05-12T02:46:58.297Z,86.70
2018-05-12T02:49:25.849Z,86.70
2018-05-12T02:51:53.377Z,86.70
2018-05-12T02:54:20.933Z,86.60
2018-05-12T02:56:48.453Z,86.50
2018-05-12T02:59:16.362Z,86.50
2018-05-12T03:01:43.921Z,86.30
2018-05-12T03:04:11.441Z,86.30
2018-05-12T03:06:38.970Z,86.30
2018-05-12T03:09:06.479Z,86.30
2018-05-12T03:11:34.019Z,86.30
2018-05-12T03:14:01.531Z,86.60
2018-05-12T03:16:29.076Z,86.80
2018-05-12T03:18:56.703Z,86.90
2018-05-12T03:21:24.363Z,87.00
2018-05-12T03:23:51.877Z,87.10
2018-05-12T03:26:19.892Z,87.00
2018-05-12T03:28:47.598Z,87.00
2018-05-12T03:31:15.221Z,86.90
2018-05-12T03:33:42.764Z,86.60
2018-05-12T03:36:10.523Z,86.30
2018-05-12T03:38:38.032Z,86.30
2018-05-12T03:41:05.965Z,86.50
2018-05-12T03:43:33.469Z,86.50
2018-05-12T03:46:01.150Z,86.20
2018-05-12T03:48:28.683Z,86.20
2018-05-12T03:50:56.702Z,86.10
2018-05-12T03:53:24.213Z,86.10
2018-05-12T03:55:51.805Z,86.10
2018-05-12T03:58:19.324Z,86.10
2018-05-12T04:00:46.893Z,86.00
2018-05-12T04:03:14.546Z,86.10
2018-05-12T04:05:53.916Z,85.90
2018-05-12T04:08:34.555Z,86.20
2018-05-12T04:11:14.238Z,86.90
2018-05-12T04:13:41.748Z,87.00
2018-05-12T04:16:09.275Z,87.40
2018-05-12T04:18:36.772Z,87.50
2018-05-12T04:21:04.515Z,87.50
2018-05-12T04:23:31.955Z,88.10
2018-05-12T04:25:59.497Z,88.30
2018-05-12T04:28:27.117Z,88.60
2018-05-12T04:30:54.650Z,88.80
2018-05-12T04:33:22.168Z,88.80
2018-05-12T04:35:50.070Z,88.10
2018-05-12T04:38:17.602Z,88.10
2018-05-12T04:40:45.109Z,88.00
2018-05-12T04:43:12.723Z,88.00
2018-05-12T04:45:40.199Z,87.60
2018-05-12T04:48:07.833Z,87.30
2018-05-12T04:50:35.352Z,87.10
2018-05-12T04:53:02.898Z,86.90
2018-05-12T04:55:30.421Z,86.80
2018-05-12T04:57:57.973Z,86.30
2018-05-12T05:00:25.488Z,85.70
2018-05-12T05:02:53.197Z,85.40
2018-05-12T05:05:20.713Z,85.20
2018-05-12T05:07:48.652Z,85.80
2018-05-12T05:10:16.178Z,85.80
2018-05-12T05:12:44.090Z,85.80
2018-05-12T05:15:12.069Z,85.90
2018-05-12T05:17:39.647Z,85.90
2018-05-12T05:20:07.197Z,85.80
2018-05-12T05:22:34.731Z,85.40
2018-05-12T05:25:02.625Z,84.80
2018-05-12T05:27:30.180Z,84.80
2018-05-12T05:29:57.849Z,84.20
2018-05-12T05:32:25.396Z,83.80
2018-05-12T05:34:52.897Z,83.40
2018-05-12T05:37:20.840Z,83.50
2018-05-12T05:39:48.382Z,83.50
2018-05-12T05:42:15.942Z,82.90
2018-05-12T05:44:43.580Z,82.80
2018-05-12T05:47:11.248Z,82.80
2018-05-12T05:49:38.908Z,82.90
2018-05-12T05:52:06.438Z,82.90
2018-05-12T05:54:33.933Z,83.20
2018-05-12T05:57:01.475Z,82.70
2018-05-12T05:59:29.133Z,82.80
2018-05-12T06:01:56.639Z,82.80
2018-05-12T06:04:24.451Z,82.60
2018-05-12T06:06:52.131Z,82.10
2018-05-12T06:09:19.697Z,81.50
2018-05-12T06:11:47.292Z,81.10
2018-05-12T06:14:15.228Z,80.00
2018-05-12T06:16:42.753Z,80.00
2018-05-12T06:19:10.304Z,79.10
2018-05-12T06:21:37.825Z,78.80
2018-05-12T06:24:05.365Z,78.10
2018-05-12T06:26:32.910Z,76.30
2018-05-12T06:29:00.623Z,75.90
2018-05-12T06:31:28.141Z,73.80
2018-05-12T06:33:56.077Z,74.10
2018-05-12T06:36:23.691Z,74.10
2018-05-12T06:38:51.266Z,71.80
2018-05-12T06:41:18.774Z,71.00
2018-05-12T06:43:46.722Z,70.20
2018-05-12T06:46:14.234Z,70.20
2018-05-12T06:48:41.895Z,68.10
2018-05-12T06:51:09.397Z,65.70
2018-05-12T06:53:36.958Z,63.50
2018-05-12T06:56:04.471Z,62.40
2018-05-12T06:58:32.004Z,61.50
2018-05-12T07:00:59.590Z,60.00
2018-05-12T07:03:27.125Z,60.80
2018-05-12T07:05:54.679Z,59.30
2018-05-12T07:08:22.235Z,59.30
2018-05-12T07:10:49.741Z,58.30
2018-05-12T07:13:17.284Z,56.80
2018-05-12T07:15:44.790Z,57.80
2018-05-12T07:18:12.318Z,58.30
2018-05-12T07:20:39.832Z,56.40
2018-05-12T07:23:07.339Z,56.10
2018-05-12T07:25:35.269Z,54.80
2018-05-12T07:28:02.761Z,54.80
2018-05-12T07:30:30.302Z,53.80
2018-05-12T07:32:57.805Z,52.50
2018-05-12T07:35:25.368Z,52.90
2018-05-12T07:37:52.884Z,51.50
2018-05-12T07:40:20.833Z,53.30
2018-05-12T07:42:48.797Z,51.90
2018-05-12T07:45:16.729Z,51.20
2018-05-12T07:47:44.249Z,51.20
2018-05-12T07:50:11.870Z,52.10
2018-05-12T07:52:39.585Z,51.40
2018-05-12T07:55:07.166Z,50.50
2018-05-12T07:57:34.699Z,51.70
2018-05-12T08:00:02.227Z,51.80
2018-05-12T08:02:30.128Z,50.20
2018-05-12T08:04:57.662Z,50.20
2018-05-12T08:07:25.181Z,51.40
2018-05-12T08:09:52.738Z,52.10
2018-05-12T08:12:20.267Z,51.40
2018-05-12T08:14:47.823Z,50.60
2018-05-12T08:17:15.334Z,51.90
2018-05-12T08:19:42.884Z,51.30
2018-05-12T08:22:10.400Z,50.70
2018-05-12T08:24:37.962Z,51.20
2018-05-12T08:27:05.503Z,50.80
2018-05-12T08:29:33.062Z,53.30
2018-05-12T08:32:00.705Z,53.30
2018-05-12T08:34:28.337Z,52.10
2018-05-12T08:36:55.854Z,51.60
2018-05-12T08:39:23.457Z,51.90
2018-05-12T08:41:51.136Z,51.70
2018-05-12T08:44:18.685Z,51.80
2018-05-12T08:46:46.207Z,52.10
2018-05-12T08:49:13.744Z,50.70
2018-05-12T08:51:41.735Z,49.80
2018-05-12T08:54:09.457Z,51.40
2018-05-12T08:56:37.002Z,52.10
2018-05-12T08:59:04.513Z,51.70
2018-05-12T09:01:32.264Z,50.50
2018-05-12T09:03:59.722Z,49.90
2018-05-12T09:06:27.280Z,49.50
2018-05-12T09:08:54.801Z,49.90
2018-05-12T09:11:22.510Z,48.30
2018-05-12T09:13:50.081Z,48.50
2018-05-12T09:16:17.621Z,48.90
2018-05-12T09:18:45.146Z,49.60
2018-05-12T09:21:12.697Z,50.10
2018-05-12T09:23:40.213Z,51.60
2018-05-12T09:26:07.768Z,52.50
2018-05-12T09:28:35.293Z,50.40
2018-05-12T09:31:02.819Z,48.80
2018-05-12T09:33:30.335Z,49.60
2018-05-12T09:35:57.995Z,48.50
2018-05-12T09:38:25.516Z,49.70
2018-05-12T09:40:53.084Z,49.30
2018-05-12T09:43:20.740Z,50.40
2018-05-12T09:45:48.273Z,51.00
2018-05-12T09:48:15.813Z,50.60
2018-05-12T09:50:43.933Z,50.00
2018-05-12T09:53:11.446Z,50.00
2018-05-12T09:55:39.405Z,49.30
2018-05-12T09:58:06.917Z,49.30
2018-05-12T10:00:34.462Z,49.50
2018-05-12T10:03:01.969Z,50.90
2018-05-12T10:05:29.499Z,52.30
2018-05-12T10:07:57.140Z,51.90
2018-05-12T10:10:24.681Z,52.70
2018-05-12T10:12:52.254Z,51.70
2018-05-12T10:15:19.740Z,51.00
2018-05-12T10:17:47.667Z,50.50
2018-05-12T10:20:15.205Z,50.50
2018-05-12T10:22:42.735Z,50.40
2018-05-12T10:25:10.764Z,50.80
2018-05-12T10:27:38.304Z,50.80
2018-05-12T10:30:05.869Z,51.20
2018-05-12T10:32:33.364Z,50.10
2018-05-12T10:35:00.968Z,51.60
2018-05-12T10:37:28.552Z,51.20
2018-05-12T10:39:56.049Z,50.70
2018-05-12T10:42:23.740Z,50.90
2018-05-12T10:44:51.318Z,51.50
2018-05-12T10:47:18.829Z,52.40
2018-05-12T10:49:46.520Z,52.90
2018-05-12T10:52:14.181Z,53.20
2018-05-12T10:54:41.689Z,54.20
2018-05-12T10:57:09.304Z,56.70
2018-05-12T10:59:37.157Z,57.50
2018-05-12T11:02:04.703Z,57.60
2018-05-12T11:04:32.273Z,56.80
2018-05-12T11:06:59.822Z,57.80
2018-05-12T11:09:27.350Z,58.30
2018-05-12T11:11:54.877Z,59.40
2018-05-12T11:14:22.397Z,59.80
2018-05-12T11:16:49.935Z,60.00
2018-05-12T11:19:17.511Z,59.20
2018-05-12T11:21:45.318Z,60.10
2018-05-12T11:24:12.782Z,60.10
2018-05-12T11:26:40.790Z,61.70
2018-05-12T11:29:08.264Z,62.00
2018-05-12T11:31:35.804Z,60.80
2018-05-12T11:34:03.350Z,59.50
2018-05-12T11:36:31.018Z,60.90
2018-05-12T11:38:58.769Z,60.50
2018-05-12T11:41:26.312Z,60.80
2018-05-12T11:43:53.829Z,61.30
2018-05-12T11:46:21.437Z,62.00
2018-05-12T11:48:48.950Z,62.50
2018-05-12T11:51:16.973Z,62.90
2018-05-12T11:53:44.504Z,63.20
2018-05-12T11:56:12.050Z,62.50
2018-05-12T11:58:39.575Z,61.90
2018-05-12T12:01:07.283Z,61.90
2018-05-12T12:03:34.929Z,62.30
2018-05-12T12:06:02.608Z,62.50
2018-05-12T12:08:30.179Z,61.80
2018-05-12T12:10:57.703Z,62.70
2018-05-12T12:13:25.270Z,62.80
2018-05-12T12:15:52.798Z,63.40
2018-05-12T12:18:20.729Z,62.50
2018-05-12T12:20:48.335Z,62.80
2018-05-12T12:23:15.909Z,62.30
2018-05-12T12:25:43.433Z,62.40
2018-05-12T12:28:10.998Z,62.70
2018-05-12T12:30:38.522Z,62.70
2018-05-12T12:33:06.424Z,63.30
2018-05-12T12:35:33.940Z,63.40
2018-05-12T12:38:01.507Z,63.30
2018-05-12T12:40:29.111Z,62.90
2018-05-12T12:42:56.657Z,62.00
2018-05-12T12:45:24.175Z,62.50
2018-05-12T12:47:51.725Z,62.90
2018-05-12T12:50:19.241Z,63.20
2018-05-12T12:52:46.798Z,63.40
2018-05-12T12:55:14.307Z,63.00
2018-05-12T12:57:42.246Z,61.60
2018-05-12T13:00:09.773Z,61.80
2018-05-12T13:02:37.336Z,62.00
2018-05-12T13:05:04.879Z,61.70
2018-05-12T13:07:32.416Z,62.00
2018-05-12T13:09:59.933Z,61.10
2018-05-12T13:12:27.481Z,61.30
2018-05-12T13:14:55.002Z,63.20
2018-05-12T13:17:22.557Z,62.80
2018-05-12T13:19:50.078Z,63.30
2018-05-12T13:22:18.049Z,62.90
2018-05-12T13:24:45.545Z,62.90
2018-05-12T13:27:13.072Z,61.80
2018-05-12T13:29:40.665Z,61.70
2018-05-12T13:32:08.177Z,62.00
2018-05-12T13:34:35.718Z,61.60
2018-05-12T13:37:03.243Z,61.50
2018-05-12T13:39:30.857Z,61.60
2018-05-12T13:41:58.527Z,61.10
2018-05-12T13:44:26.185Z,61.30
2018-05-12T13:46:54.048Z,61.20
2018-05-12T13:49:21.580Z,60.90
2018-05-12T13:51:49.477Z,60.30
2018-05-12T13:54:17.016Z,60.30
2018-05-12T13:56:44.576Z,60.40
2018-05-12T13:59:12.141Z,62.10
2018-05-12T14:01:39.646Z,61.70
2018-05-12T14:04:07.204Z,62.50
2018-05-12T14:06:35.483Z,63.20
2018-05-12T14:09:03.037Z,63.20
2018-05-12T14:11:30.644Z,62.40
2018-05-12T14:13:58.235Z,63.10
2018-05-12T14:16:25.729Z,62.90
2018-05-12T14:18:53.299Z,63.40
2018-05-12T14:21:20.808Z,63.10
2018-05-12T14:23:48.367Z,62.70
2018-05-12T14:26:15.892Z,62.50
2018-05-12T14:28:43.453Z,62.60
2018-05-12T14:31:10.956Z,62.80
2018-05-12T14:33:38.957Z,63.50
2018-05-12T14:36:06.517Z,63.10
2018-05-12T14:38:34.073Z,63.30
2018-05-12T14:41:01.737Z,62.70
2018-05-12T14:43:29.284Z,63.70
2018-05-12T14:45:56.891Z,63.90
2018-05-12T14:48:24.477Z,63.80
2018-05-12T14:50:51.997Z,63.20
2018-05-12T14:53:19.542Z,63.20
2018-05-12T14:55:47.071Z,63.30
2018-05-12T14:58:14.622Z,63.30
2018-05-12T15:00:42.827Z,62.70
2018-05-12T15:03:10.463Z,63.00
2018-05-12T15:05:38.020Z,62.60
2018-05-12T15:08:05.570Z,62.40
2018-05-12T15:10:33.330Z,62.40
2018-05-12T15:13:00.894Z,61.70
2018-05-12T15:15:28.544Z,61.30
2018-05-12T15:17:56.051Z,62.00
2018-05-12T15:20:23.680Z,62.50
2018-05-12T15:22:51.226Z,62.50
2018-05-12T15:25:18.765Z,62.90
2018-05-12T15:27:46.279Z,61.70
2018-05-12T15:30:14.209Z,62.60
2018-05-12T15:32:41.724Z,62.50
2018-05-12T15:35:09.282Z,62.10
2018-05-12T15:37:36.842Z,62.50
2018-05-12T15:40:04.383Z,62.80
2018-05-12T15:42:32.470Z,62.50
2018-05-12T15:45:00.052Z,62.50
2018-05-12T15:47:27.558Z,62.30
2018-05-12T15:49:55.790Z,62.80
2018-05-12T15:52:23.223Z,62.90
2018-05-12T15:54:50.749Z,63.30
2018-05-12T15:57:19.018Z,64.00
2018-05-12T15:59:46.497Z,63.90
2018-05-12T16:02:14.001Z,64.10
2018-05-12T16:04:41.557Z,64.70
2018-05-12T16:07:09.120Z,63.70
2018-05-12T16:09:36.674Z,63.70
2018-05-12T16:12:04.192Z,63.30
2018-05-12T16:14:31.717Z,63.20
2018-05-12T16:16:59.235Z,63.10
2018-05-12T16:19:26.769Z,62.80
2018-05-12T16:21:54.272Z,63.10
2018-05-12T16:24:21.962Z,62.70
2018-05-12T16:26:49.472Z,62.80
2018-05-12T16:29:17.087Z,63.70
2018-05-12T16:31:44.609Z,63.50
2018-05-12T16:34:12.178Z,63.10
2018-05-12T16:36:39.687Z,63.00
2018-05-12T16:39:07.217Z,62.50
2018-05-12T16:41:34.754Z,62.30
2018-05-12T16:44:02.269Z,62.10
2018-05-12T16:46:30.275Z,62.00
2018-05-12T16:48:57.793Z,62.00
2018-05-12T16:51:25.740Z,62.80
2018-05-12T16:53:53.277Z,62.80
2018-05-12T16:56:20.955Z,62.80
2018-05-12T16:58:48.569Z,62.90
2018-05-12T17:01:16.102Z,62.90
2018-05-12T17:03:43.625Z,63.10
2018-05-12T17:06:11.340Z,62.70
2018-05-12T17:08:38.999Z,62.90
2018-05-12T17:11:06.558Z,63.20
2018-05-12T17:13:34.120Z,63.00
2018-05-12T17:16:01.695Z,62.40
2018-05-12T17:18:29.202Z,62.10
2018-05-12T17:20:56.731Z,62.60
2018-05-12T17:23:24.271Z,62.90
2018-05-12T17:25:51.807Z,62.50
2018-05-12T17:28:19.305Z,62.70
2018-05-12T17:30:47.532Z,62.60
2018-05-12T17:33:15.172Z,62.60
2018-05-12T17:35:42.763Z,62.60
2018-05-12T17:38:10.298Z,62.50
2018-05-12T17:40:37.853Z,62.70
2018-05-12T17:43:05.381Z,63.20
2018-05-12T17:45:32.906Z,62.90
2018-05-12T17:48:00.525Z,63.10
2018-05-12T17:50:28.062Z,63.70
2018-05-12T17:52:55.577Z,63.30
2018-05-12T17:55:23.291Z,63.00
2018-05-12T17:57:50.813Z,63.50
2018-05-12T18:00:18.745Z,63.50
2018-05-12T18:02:46.369Z,63.50
2018-05-12T18:05:13.890Z,63.80
2018-05-12T18:07:41.583Z,64.60
2018-05-12T18:10:09.086Z,64.90
2018-05-12T18:12:36.656Z,65.10
2018-05-12T18:15:04.319Z,65.60
2018-05-12T18:17:32.000Z,65.80
2018-05-12T18:19:59.521Z,66.00
2018-05-12T18:22:27.535Z,66.50
2018-05-12T18:24:55.193Z,66.50
2018-05-12T18:27:22.747Z,66.70
2018-05-12T18:29:50.499Z,66.80
2018-05-12T18:32:18.056Z,67.20
2018-05-12T18:34:45.582Z,67.60
2018-05-12T18:37:13.126Z,68.10
2018-05-12T18:39:41.044Z,69.20
2018-05-12T18:42:08.617Z,69.80
2018-05-12T18:44:36.109Z,70.80
2018-05-12T18:47:04.063Z,72.00
2018-05-12T18:49:31.573Z,72.60
2018-05-12T18:51:59.113Z,72.70
2018-05-12T18:54:26.640Z,73.80
2018-05-12T18:56:54.180Z,73.90
2018-05-12T18:59:21.692Z,74.30
2018-05-12T19:01:49.283Z,74.60
2018-05-12T19:04:16.799Z,74.80
2018-05-12T19:06:44.354Z,74.90
2018-05-12T19:09:11.877Z,75.10
2018-05-12T19:11:39.825Z,75.40
2018-05-12T19:14:07.648Z,75.40
2018-05-12T19:16:35.221Z,75.70
2018-05-12T19:19:02.871Z,75.80
2018-05-12T19:21:30.421Z,76.10
2018-05-12T19:23:57.932Z,76.30
2018-05-12T19:26:25.904Z,77.00
2018-05-12T19:28:53.816Z,77.00
2018-05-12T19:31:21.373Z,77.10
2018-05-12T19:33:48.905Z,77.20
2018-05-12T19:36:16.445Z,77.10
2018-05-12T19:38:43.961Z,77.10
2018-05-12T19:41:11.487Z,76.90
2018-05-12T19:43:39.083Z,77.30
2018-05-12T19:46:06.582Z,77.30
2018-05-12T19:48:34.118Z,77.40
2018-05-12T19:51:01.810Z,77.50
2018-05-12T19:53:29.473Z,77.80
2018-05-12T19:55:56.997Z,77.80
2018-05-12T19:58:24.929Z,78.40
2018-05-12T20:00:52.426Z,78.30
2018-05-12T20:03:19.958Z,78.40
2018-05-12T20:05:47.484Z,78.50
2018-05-12T20:08:15.030Z,78.40
2018-05-12T20:10:42.535Z,78.30
2018-05-12T20:13:10.538Z,78.60
2018-05-12T20:15:38.057Z,78.60
2018-05-12T20:18:05.646Z,78.40
2018-05-12T20:20:33.148Z,78.40
2018-05-12T20:23:00.689Z,78.70
2018-05-12T20:25:28.192Z,78.60
2018-05-12T20:27:55.893Z,78.50
2018-05-12T20:30:23.546Z,78.50
2018-05-12T20:32:51.077Z,78.60
2018-05-12T20:35:18.605Z,78.50
2018-05-12T20:37:46.150Z,78.50
2018-05-12T20:40:13.653Z,78.70
2018-05-12T20:42:41.190Z,78.70
2018-05-12T20:45:08.703Z,78.80
2018-05-12T20:47:36.234Z,78.80
2018-05-12T20:50:03.757Z,78.70
2018-05-12T20:52:31.292Z,79.00
2018-05-12T20:54:59.195Z,79.00
2018-05-12T20:57:26.737Z,79.00
2018-05-12T20:59:54.419Z,78.90
2018-05-12T21:02:21.954Z,78.90
2018-05-12T21:04:49.531Z,79.00
2018-05-12T21:07:17.172Z,79.00
2018-05-12T21:09:44.848Z,78.90
2018-05-12T21:12:12.370Z,79.00
2018-05-12T21:14:40.364Z,78.90
2018-05-12T21:17:07.870Z,78.90
2018-05-12T21:19:35.394Z,79.00
2018-05-12T21:22:02.959Z,79.00
2018-05-12T21:24:30.601Z,79.20
2018-05-12T21:26:58.243Z,79.40
2018-05-12T21:29:25.843Z,79.50
2018-05-12T21:31:53.309Z,79.60
2018-05-12T21:34:20.848Z,79.60
2018-05-12T21:36:48.353Z,79.40
2018-05-12T21:39:15.939Z,79.60
2018-05-12T21:41:43.503Z,80.00
2018-05-12T21:44:11.064Z,80.00
2018-05-12T21:46:38.589Z,80.20
2018-05-12T21:49:06.148Z,80.30
2018-05-12T21:51:33.654Z,80.30
2018-05-12T21:54:01.200Z,80.20
2018-05-12T21:56:28.726Z,80.30
2018-05-12T21:58:56.333Z,80.30
2018-05-12T22:01:23.841Z,80.20
2018-05-12T22:03:51.506Z,80.30
2018-05-12T22:06:19.017Z,80.60
2018-05-12T22:08:47.017Z,81.40
2018-05-12T22:11:14.519Z,81.50
2018-05-12T22:13:42.065Z,81.60
2018-05-12T22:16:09.803Z,81.70
2018-05-12T22:18:37.488Z,82.00
2018-05-12T22:21:04.925Z,82.30
2018-05-12T22:23:32.458Z,82.40
2018-05-12T22:26:00.000Z,82.60
2018-05-12T22:28:27.671Z,82.60
2018-05-12T22:30:55.197Z,82.80
2018-05-12T22:33:23.106Z,82.80
2018-05-12T22:35:50.648Z,82.80
2018-05-12T22:38:18.312Z,82.90
2018-05-12T22:40:45.971Z,82.90
2018-05-12T22:43:13.479Z,82.90
2018-05-12T22:45:41.413Z,82.40
2018-05-12T22:48:08.930Z,82.40
2018-05-12T22:50:36.601Z,82.10
2018-05-12T22:53:04.108Z,82.30
2018-05-12T22:55:31.644Z,81.90
2018-05-12T22:57:59.167Z,81.90
2018-05-12T23:00:33.568Z,81.90
2018-05-12T23:03:01.092Z,81.90
2018-05-12T23:05:28.621Z,82.00
2018-05-12T23:07:56.134Z,82.30
2018-05-12T23:10:23.691Z,82.10
2018-05-12T23:12:51.212Z,82.10
2018-05-12T23:15:18.743Z,82.10
2018-05-12T23:17:46.377Z,82.00
2018-05-12T23:20:13.933Z,82.10
2018-05-12T23:22:47.431Z,82.10
2018-05-12T23:25:14.960Z,82.30
2018-05-12T23:27:42.549Z,82.40
2018-05-12T23:30:10.082Z,82.40
2018-05-12T23:32:37.641Z,82.30
2018-05-12T23:35:05.137Z,82.40
2018-05-12T23:37:32.690Z,82.60
2018-05-12T23:40:00.216Z,82.70
2018-05-12T23:42:27.831Z,82.60
2018-05-12T23:44:55.642Z,82.70
2018-05-12T23:47:23.413Z,82.80
2018-05-12T23:49:50.926Z,82.80
2018-05-12T23:52:18.457Z,82.80
2018-05-12T23:54:45.981Z,82.60
2018-05-12T23:57:13.648Z,82.70
2018-05-12T23:59:41.170Z,82.60
